sensor_id;sensor_type;location;lat;lon;timestamp;P1;durP1;ratioP1;P2;durP2;ratioP2
47772;SDS011;33534;51.028;13.716;2022-09-13T00:00:45;7.65;;;6.35;;
47772;SDS011;33534;51.028;13.716;2022-09-13T00:03:13;10.15;;;6.38;;
47772;SDS011;33534;51.028;13.716;2022-09-13T00:05:39;9.23;;;6.88;;
47772;SDS011;33534;51.028;13.716;2022-09-13T00:08:05;8.43;;;5.88;;
47772;SDS011;33534;51.028;13.716;2022-09-13T00:10:38;8.32;;;6.07;;
47772;SDS011;33534;51.028;13.716;2022-09-13T00:13:05;9.27;;;6.82;;
47772;SDS011;33534;51.028;13.716;2022-09-13T00:15:32;7.30;;;6.03;;
47772;SDS011;33534;51.028;13.716;2022-09-13T00:17:58;7.15;;;6.40;;
47772;SDS011;33534;51.028;13.716;2022-09-13T00:20:24;8.10;;;6.28;;
47772;SDS011;33534;51.028;13.716;2022-09-13T00:22:50;6.82;;;6.13;;
47772;SDS011;33534;51.028;13.716;2022-09-13T00:25:16;7.70;;;6.65;;
47772;SDS011;33534;51.028;13.716;2022-09-13T00:27:43;9.68;;;6.78;;
47772;SDS011;33534;51.028;13.716;2022-09-13T00:30:09;8.88;;;6.93;;
47772;SDS011;33534;51.028;13.716;2022-09-13T00:32:35;9.27;;;7.15;;
47772;SDS011;33534;51.028;13.716;2022-09-13T00:35:01;8.27;;;7.47;;
47772;SDS011;33534;51.028;13.716;2022-09-13T00:37:27;10.20;;;7.82;;
47772;SDS011;33534;51.028;13.716;2022-09-13T00:39:53;11.98;;;6.93;;
47772;SDS011;33534;51.028;13.716;2022-09-13T00:42:29;12.70;;;7.47;;
47772;SDS011;33534;51.028;13.716;2022-09-13T00:50:11;11.88;;;8.05;;
47772;SDS011;33534;51.028;13.716;2022-09-13T00:52:40;9.20;;;7.60;;
47772;SDS011;33534;51.028;13.716;2022-09-13T00:55:19;9.85;;;7.38;;
47772;SDS011;33534;51.028;13.716;2022-09-13T00:57:45;8.40;;;7.13;;
47772;SDS011;33534;51.028;13.716;2022-09-13T01:00:12;8.02;;;7.22;;
47772;SDS011;33534;51.028;13.716;2022-09-13T01:02:40;9.02;;;7.35;;
47772;SDS011;33534;51.028;13.716;2022-09-13T01:05:07;8.27;;;6.47;;
47772;SDS011;33534;51.028;13.716;2022-09-13T01:07:33;8.68;;;7.15;;
47772;SDS011;33534;51.028;13.716;2022-09-13T01:10:00;10.30;;;7.45;;
47772;SDS011;33534;51.028;13.716;2022-09-13T01:12:40;10.57;;;6.75;;
47772;SDS011;33534;51.028;13.716;2022-09-13T01:15:08;10.57;;;6.75;;
47772;SDS011;33534;51.028;13.716;2022-09-13T01:17:35;7.78;;;6.78;;
47772;SDS011;33534;51.028;13.716;2022-09-13T01:20:03;7.38;;;6.65;;
47772;SDS011;33534;51.028;13.716;2022-09-13T01:41:26;7.60;;;6.30;;
47772;SDS011;33534;51.028;13.716;2022-09-13T01:48:43;9.18;;;7.40;;
47772;SDS011;33534;51.028;13.716;2022-09-13T01:51:33;17.13;;;7.55;;
47772;SDS011;33534;51.028;13.716;2022-09-13T01:56:28;10.18;;;6.45;;
47772;SDS011;33534;51.028;13.716;2022-09-13T01:59:05;8.27;;;7.15;;
47772;SDS011;33534;51.028;13.716;2022-09-13T02:01:42;7.20;;;6.50;;
47772;SDS011;33534;51.028;13.716;2022-09-13T02:04:15;8.18;;;7.05;;
47772;SDS011;33534;51.028;13.716;2022-09-13T02:06:44;7.80;;;6.60;;
47772;SDS011;33534;51.028;13.716;2022-09-13T02:09:13;8.55;;;6.30;;
47772;SDS011;33534;51.028;13.716;2022-09-13T02:11:40;8.38;;;7.05;;
47772;SDS011;33534;51.028;13.716;2022-09-13T02:14:14;7.95;;;7.15;;
47772;SDS011;33534;51.028;13.716;2022-09-13T02:16:45;8.52;;;6.93;;
47772;SDS011;33534;51.028;13.716;2022-09-13T02:19:15;10.15;;;7.22;;
47772;SDS011;33534;51.028;13.716;2022-09-13T02:21:43;7.82;;;6.68;;
47772;SDS011;33534;51.028;13.716;2022-09-13T02:24:12;10.45;;;6.75;;
47772;SDS011;33534;51.028;13.716;2022-09-13T02:26:39;7.68;;;6.68;;
47772;SDS011;33534;51.028;13.716;2022-09-13T02:29:11;8.00;;;7.18;;
47772;SDS011;33534;51.028;13.716;2022-09-13T02:31:45;8.32;;;6.95;;
47772;SDS011;33534;51.028;13.716;2022-09-13T02:34:17;8.23;;;6.95;;
47772;SDS011;33534;51.028;13.716;2022-09-13T02:36:45;7.53;;;6.72;;
47772;SDS011;33534;51.028;13.716;2022-09-13T02:39:14;7.43;;;6.68;;
47772;SDS011;33534;51.028;13.716;2022-09-13T02:44:14;9.73;;;6.60;;
47772;SDS011;33534;51.028;13.716;2022-09-13T02:56:47;9.55;;;6.00;;
47772;SDS011;33534;51.028;13.716;2022-09-13T02:59:15;10.85;;;6.32;;
47772;SDS011;33534;51.028;13.716;2022-09-13T03:01:44;8.15;;;6.45;;
47772;SDS011;33534;51.028;13.716;2022-09-13T03:04:11;8.45;;;7.55;;
47772;SDS011;33534;51.028;13.716;2022-09-13T03:06:38;9.20;;;6.97;;
47772;SDS011;33534;51.028;13.716;2022-09-13T03:09:05;10.48;;;7.40;;
47772;SDS011;33534;51.028;13.716;2022-09-13T03:11:35;9.25;;;7.05;;
47772;SDS011;33534;51.028;13.716;2022-09-13T03:39:40;8.23;;;7.43;;
47772;SDS011;33534;51.028;13.716;2022-09-13T03:42:12;8.38;;;7.00;;
47772;SDS011;33534;51.028;13.716;2022-09-13T03:44:41;10.00;;;6.78;;
47772;SDS011;33534;51.028;13.716;2022-09-13T03:47:08;9.10;;;7.18;;
47772;SDS011;33534;51.028;13.716;2022-09-13T03:49:35;9.48;;;6.75;;
47772;SDS011;33534;51.028;13.716;2022-09-13T03:52:02;8.23;;;6.97;;
47772;SDS011;33534;51.028;13.716;2022-09-13T03:54:29;7.90;;;7.10;;
47772;SDS011;33534;51.028;13.716;2022-09-13T03:59:55;10.05;;;7.25;;
47772;SDS011;33534;51.028;13.716;2022-09-13T04:02:22;9.13;;;6.75;;
47772;SDS011;33534;51.028;13.716;2022-09-13T04:04:48;8.77;;;7.75;;
47772;SDS011;33534;51.028;13.716;2022-09-13T04:07:21;8.70;;;6.43;;
47772;SDS011;33534;51.028;13.716;2022-09-13T04:09:47;8.50;;;7.47;;
47772;SDS011;33534;51.028;13.716;2022-09-13T04:12:14;8.30;;;7.13;;
47772;SDS011;33534;51.028;13.716;2022-09-13T04:14:41;8.57;;;7.30;;
47772;SDS011;33534;51.028;13.716;2022-09-13T04:17:10;8.23;;;6.78;;
47772;SDS011;33534;51.028;13.716;2022-09-13T04:19:37;12.68;;;7.50;;
47772;SDS011;33534;51.028;13.716;2022-09-13T04:22:03;9.68;;;7.65;;
47772;SDS011;33534;51.028;13.716;2022-09-13T04:24:29;8.93;;;7.32;;
47772;SDS011;33534;51.028;13.716;2022-09-13T04:26:55;8.20;;;7.18;;
47772;SDS011;33534;51.028;13.716;2022-09-13T04:29:22;11.20;;;7.65;;
47772;SDS011;33534;51.028;13.716;2022-09-13T04:31:49;12.95;;;8.07;;
47772;SDS011;33534;51.028;13.716;2022-09-13T04:34:15;9.77;;;8.23;;
47772;SDS011;33534;51.028;13.716;2022-09-13T04:36:42;10.85;;;7.95;;
47772;SDS011;33534;51.028;13.716;2022-09-13T04:39:08;8.77;;;7.88;;
47772;SDS011;33534;51.028;13.716;2022-09-13T04:41:34;14.35;;;9.05;;
47772;SDS011;33534;51.028;13.716;2022-09-13T04:44:00;12.95;;;8.50;;
47772;SDS011;33534;51.028;13.716;2022-09-13T04:46:27;10.85;;;8.27;;
47772;SDS011;33534;51.028;13.716;2022-09-13T04:48:53;11.60;;;9.32;;
47772;SDS011;33534;51.028;13.716;2022-09-13T04:51:19;13.13;;;9.77;;
47772;SDS011;33534;51.028;13.716;2022-09-13T04:53:46;12.18;;;9.45;;
47772;SDS011;33534;51.028;13.716;2022-09-13T04:56:17;10.38;;;8.45;;
47772;SDS011;33534;51.028;13.716;2022-09-13T04:58:43;11.93;;;8.25;;
47772;SDS011;33534;51.028;13.716;2022-09-13T05:01:09;11.50;;;8.38;;
47772;SDS011;33534;51.028;13.716;2022-09-13T05:03:36;9.75;;;7.47;;
47772;SDS011;33534;51.028;13.716;2022-09-13T05:06:03;10.20;;;7.60;;
47772;SDS011;33534;51.028;13.716;2022-09-13T05:08:29;10.43;;;6.55;;
47772;SDS011;33534;51.028;13.716;2022-09-13T05:10:55;8.77;;;6.57;;
47772;SDS011;33534;51.028;13.716;2022-09-13T05:13:22;10.07;;;7.00;;
47772;SDS011;33534;51.028;13.716;2022-09-13T05:15:48;9.82;;;6.63;;
47772;SDS011;33534;51.028;13.716;2022-09-13T05:18:14;6.20;;;5.60;;
47772;SDS011;33534;51.028;13.716;2022-09-13T05:20:40;8.07;;;6.45;;
47772;SDS011;33534;51.028;13.716;2022-09-13T05:23:06;7.40;;;5.45;;
47772;SDS011;33534;51.028;13.716;2022-09-13T05:25:32;9.38;;;5.72;;
47772;SDS011;33534;51.028;13.716;2022-09-13T05:27:58;9.52;;;4.90;;
47772;SDS011;33534;51.028;13.716;2022-09-13T05:30:24;8.55;;;4.43;;
47772;SDS011;33534;51.028;13.716;2022-09-13T05:32:50;9.30;;;5.00;;
47772;SDS011;33534;51.028;13.716;2022-09-13T05:35:16;9.68;;;4.28;;
47772;SDS011;33534;51.028;13.716;2022-09-13T05:37:42;6.13;;;4.38;;
47772;SDS011;33534;51.028;13.716;2022-09-13T05:40:08;5.35;;;4.50;;
47772;SDS011;33534;51.028;13.716;2022-09-13T05:42:34;12.05;;;4.68;;
47772;SDS011;33534;51.028;13.716;2022-09-13T05:45:00;7.57;;;4.47;;
47772;SDS011;33534;51.028;13.716;2022-09-13T05:47:26;6.57;;;4.30;;
47772;SDS011;33534;51.028;13.716;2022-09-13T05:49:52;6.50;;;4.22;;
47772;SDS011;33534;51.028;13.716;2022-09-13T05:52:18;7.07;;;4.18;;
47772;SDS011;33534;51.028;13.716;2022-09-13T05:54:44;6.18;;;4.05;;
47772;SDS011;33534;51.028;13.716;2022-09-13T05:57:10;6.82;;;4.35;;
47772;SDS011;33534;51.028;13.716;2022-09-13T05:59:36;4.50;;;3.92;;
47772;SDS011;33534;51.028;13.716;2022-09-13T06:02:02;6.38;;;4.00;;
47772;SDS011;33534;51.028;13.716;2022-09-13T06:04:28;5.20;;;3.97;;
47772;SDS011;33534;51.028;13.716;2022-09-13T06:06:55;7.40;;;4.03;;
47772;SDS011;33534;51.028;13.716;2022-09-13T06:09:21;4.22;;;3.75;;
47772;SDS011;33534;51.028;13.716;2022-09-13T06:11:47;7.35;;;4.55;;
47772;SDS011;33534;51.028;13.716;2022-09-13T06:14:12;5.50;;;4.07;;
47772;SDS011;33534;51.028;13.716;2022-09-13T06:16:38;7.63;;;3.60;;
47772;SDS011;33534;51.028;13.716;2022-09-13T06:19:04;6.35;;;4.07;;
47772;SDS011;33534;51.028;13.716;2022-09-13T06:21:30;8.15;;;3.80;;
47772;SDS011;33534;51.028;13.716;2022-09-13T06:23:56;6.88;;;3.83;;
47772;SDS011;33534;51.028;13.716;2022-09-13T06:26:23;8.38;;;3.60;;
47772;SDS011;33534;51.028;13.716;2022-09-13T06:28:51;9.32;;;4.13;;
47772;SDS011;33534;51.028;13.716;2022-09-13T06:31:18;5.50;;;3.45;;
47772;SDS011;33534;51.028;13.716;2022-09-13T06:33:44;6.88;;;3.70;;
47772;SDS011;33534;51.028;13.716;2022-09-13T06:36:12;4.50;;;3.17;;
47772;SDS011;33534;51.028;13.716;2022-09-13T06:38:39;5.60;;;3.90;;
47772;SDS011;33534;51.028;13.716;2022-09-13T06:41:06;3.83;;;3.53;;
47772;SDS011;33534;51.028;13.716;2022-09-13T06:43:33;11.02;;;4.55;;
47772;SDS011;33534;51.028;13.716;2022-09-13T06:46:04;7.15;;;4.22;;
47772;SDS011;33534;51.028;13.716;2022-09-13T06:48:31;5.38;;;3.42;;
47772;SDS011;33534;51.028;13.716;2022-09-13T06:51:01;9.15;;;4.15;;
47772;SDS011;33534;51.028;13.716;2022-09-13T06:53:27;10.18;;;4.30;;
47772;SDS011;33534;51.028;13.716;2022-09-13T06:58:32;10.52;;;4.82;;
47772;SDS011;33534;51.028;13.716;2022-09-13T07:03:38;6.97;;;4.60;;
47772;SDS011;33534;51.028;13.716;2022-09-13T07:06:08;8.93;;;4.80;;
47772;SDS011;33534;51.028;13.716;2022-09-13T07:08:34;7.82;;;4.93;;
47772;SDS011;33534;51.028;13.716;2022-09-13T07:11:00;10.38;;;4.55;;
47772;SDS011;33534;51.028;13.716;2022-09-13T07:13:26;8.40;;;4.30;;
47772;SDS011;33534;51.028;13.716;2022-09-13T07:15:52;4.80;;;3.72;;
47772;SDS011;33534;51.028;13.716;2022-09-13T07:18:18;8.07;;;4.32;;
47772;SDS011;33534;51.028;13.716;2022-09-13T07:20:44;9.27;;;4.75;;
47772;SDS011;33534;51.028;13.716;2022-09-13T07:23:10;9.48;;;4.72;;
47772;SDS011;33534;51.028;13.716;2022-09-13T07:25:36;11.93;;;5.15;;
47772;SDS011;33534;51.028;13.716;2022-09-13T07:28:02;9.27;;;5.70;;
47772;SDS011;33534;51.028;13.716;2022-09-13T07:30:28;6.95;;;4.57;;
47772;SDS011;33534;51.028;13.716;2022-09-13T07:32:54;12.27;;;6.07;;
47772;SDS011;33534;51.028;13.716;2022-09-13T07:35:20;10.52;;;4.60;;
47772;SDS011;33534;51.028;13.716;2022-09-13T07:37:46;10.25;;;4.28;;
47772;SDS011;33534;51.028;13.716;2022-09-13T07:40:12;7.00;;;4.47;;
47772;SDS011;33534;51.028;13.716;2022-09-13T07:42:38;7.85;;;4.22;;
47772;SDS011;33534;51.028;13.716;2022-09-13T07:45:04;6.97;;;4.22;;
47772;SDS011;33534;51.028;13.716;2022-09-13T07:47:33;5.40;;;4.15;;
47772;SDS011;33534;51.028;13.716;2022-09-13T07:49:59;8.07;;;4.03;;
47772;SDS011;33534;51.028;13.716;2022-09-13T07:52:27;5.97;;;4.18;;
47772;SDS011;33534;51.028;13.716;2022-09-13T07:54:53;12.70;;;3.88;;
47772;SDS011;33534;51.028;13.716;2022-09-13T07:57:21;7.45;;;4.80;;
47772;SDS011;33534;51.028;13.716;2022-09-13T07:59:47;11.27;;;5.10;;
47772;SDS011;33534;51.028;13.716;2022-09-13T08:02:13;11.27;;;5.72;;
47772;SDS011;33534;51.028;13.716;2022-09-13T08:04:40;8.02;;;5.28;;
47772;SDS011;33534;51.028;13.716;2022-09-13T08:07:06;14.00;;;6.38;;
47772;SDS011;33534;51.028;13.716;2022-09-13T08:09:32;9.50;;;7.28;;
47772;SDS011;33534;51.028;13.716;2022-09-13T08:11:58;10.07;;;8.05;;
47772;SDS011;33534;51.028;13.716;2022-09-13T08:14:24;11.57;;;7.50;;
47772;SDS011;33534;51.028;13.716;2022-09-13T08:16:53;11.13;;;7.63;;
47772;SDS011;33534;51.028;13.716;2022-09-13T08:19:20;10.65;;;8.52;;
47772;SDS011;33534;51.028;13.716;2022-09-13T08:21:46;11.75;;;9.05;;
47772;SDS011;33534;51.028;13.716;2022-09-13T08:24:15;11.23;;;8.60;;
47772;SDS011;33534;51.028;13.716;2022-09-13T08:26:41;12.68;;;9.07;;
47772;SDS011;33534;51.028;13.716;2022-09-13T08:29:07;11.90;;;7.82;;
47772;SDS011;33534;51.028;13.716;2022-09-13T08:31:33;9.85;;;7.68;;
47772;SDS011;33534;51.028;13.716;2022-09-13T08:33:59;13.18;;;7.75;;
47772;SDS011;33534;51.028;13.716;2022-09-13T08:36:26;10.65;;;7.80;;
47772;SDS011;33534;51.028;13.716;2022-09-13T08:38:53;11.48;;;6.30;;
47772;SDS011;33534;51.028;13.716;2022-09-13T08:46:45;7.82;;;6.55;;
47772;SDS011;33534;51.028;13.716;2022-09-13T08:51:44;13.73;;;6.13;;
47772;SDS011;33534;51.028;13.716;2022-09-13T08:54:14;12.77;;;6.38;;
47772;SDS011;33534;51.028;13.716;2022-09-13T08:59:16;11.00;;;6.57;;
47772;SDS011;33534;51.028;13.716;2022-09-13T09:09:33;8.15;;;6.50;;
47772;SDS011;33534;51.028;13.716;2022-09-13T09:14:56;8.60;;;5.90;;
47772;SDS011;33534;51.028;13.716;2022-09-13T09:17:25;15.63;;;5.80;;
47772;SDS011;33534;51.028;13.716;2022-09-13T09:22:47;8.75;;;5.72;;
47772;SDS011;33534;51.028;13.716;2022-09-13T09:25:17;13.55;;;6.05;;
47772;SDS011;33534;51.028;13.716;2022-09-13T09:27:44;10.38;;;5.80;;
47772;SDS011;33534;51.028;13.716;2022-09-13T09:30:13;10.88;;;5.95;;
47772;SDS011;33534;51.028;13.716;2022-09-13T09:37:58;10.82;;;5.72;;
47772;SDS011;33534;51.028;13.716;2022-09-13T09:40:28;8.40;;;5.85;;
47772;SDS011;33534;51.028;13.716;2022-09-13T09:42:55;5.65;;;3.70;;
47772;SDS011;33534;51.028;13.716;2022-09-13T09:45:28;7.43;;;3.92;;
47772;SDS011;33534;51.028;13.716;2022-09-13T09:47:55;4.32;;;3.83;;
47772;SDS011;33534;51.028;13.716;2022-09-13T09:50:26;5.00;;;2.58;;
47772;SDS011;33534;51.028;13.716;2022-09-13T09:52:58;4.95;;;3.38;;
47772;SDS011;33534;51.028;13.716;2022-09-13T09:55:27;4.65;;;3.75;;
47772;SDS011;33534;51.028;13.716;2022-09-13T09:57:54;4.15;;;3.75;;
47772;SDS011;33534;51.028;13.716;2022-09-13T10:00:22;3.63;;;3.00;;
47772;SDS011;33534;51.028;13.716;2022-09-13T10:02:49;2.65;;;2.20;;
47772;SDS011;33534;51.028;13.716;2022-09-13T10:05:20;3.90;;;3.17;;
47772;SDS011;33534;51.028;13.716;2022-09-13T10:07:51;4.25;;;3.05;;
47772;SDS011;33534;51.028;13.716;2022-09-13T10:10:25;3.03;;;2.70;;
47772;SDS011;33534;51.028;13.716;2022-09-13T10:12:54;4.03;;;2.97;;
47772;SDS011;33534;51.028;13.716;2022-09-13T10:15:26;6.63;;;3.22;;
47772;SDS011;33534;51.028;13.716;2022-09-13T10:18:13;6.78;;;3.03;;
47772;SDS011;33534;51.028;13.716;2022-09-13T10:20:40;32.92;;;9.75;;
47772;SDS011;33534;51.028;13.716;2022-09-13T10:23:18;14.80;;;7.45;;
47772;SDS011;33534;51.028;13.716;2022-09-13T10:28:31;7.90;;;3.55;;
47772;SDS011;33534;51.028;13.716;2022-09-13T10:31:02;14.63;;;5.05;;
47772;SDS011;33534;51.028;13.716;2022-09-13T10:35:56;16.70;;;9.48;;
47772;SDS011;33534;51.028;13.716;2022-09-13T10:38:24;2.83;;;2.45;;
47772;SDS011;33534;51.028;13.716;2022-09-13T10:40:51;6.13;;;3.55;;
47772;SDS011;33534;51.028;13.716;2022-09-13T10:43:17;7.55;;;3.60;;
47772;SDS011;33534;51.028;13.716;2022-09-13T10:45:44;7.93;;;3.95;;
47772;SDS011;33534;51.028;13.716;2022-09-13T10:48:15;5.10;;;3.10;;
47772;SDS011;33534;51.028;13.716;2022-09-13T10:50:58;4.75;;;3.28;;
47772;SDS011;33534;51.028;13.716;2022-09-13T10:55:54;5.70;;;3.00;;
47772;SDS011;33534;51.028;13.716;2022-09-13T10:58:20;2.63;;;2.38;;
47772;SDS011;33534;51.028;13.716;2022-09-13T11:00:57;2.75;;;2.53;;
47772;SDS011;33534;51.028;13.716;2022-09-13T11:21:33;3.40;;;2.42;;
47772;SDS011;33534;51.028;13.716;2022-09-13T11:53:13;2.70;;;2.05;;
47772;SDS011;33534;51.028;13.716;2022-09-13T11:55:44;2.28;;;2.13;;
47772;SDS011;33534;51.028;13.716;2022-09-13T11:58:13;3.00;;;2.35;;
47772;SDS011;33534;51.028;13.716;2022-09-13T12:00:53;2.37;;;2.13;;
47772;SDS011;33534;51.028;13.716;2022-09-13T12:03:23;4.53;;;2.30;;
47772;SDS011;33534;51.028;13.716;2022-09-13T12:05:51;3.10;;;1.90;;
47772;SDS011;33534;51.028;13.716;2022-09-13T12:10:53;2.92;;;1.92;;
47772;SDS011;33534;51.028;13.716;2022-09-13T12:13:21;3.67;;;2.10;;
47772;SDS011;33534;51.028;13.716;2022-09-13T12:15:53;3.08;;;2.17;;
47772;SDS011;33534;51.028;13.716;2022-09-13T12:18:28;3.30;;;2.30;;
47772;SDS011;33534;51.028;13.716;2022-09-13T12:21:08;2.97;;;2.33;;
47772;SDS011;33534;51.028;13.716;2022-09-13T12:23:45;5.05;;;2.20;;
47772;SDS011;33534;51.028;13.716;2022-09-13T12:26:19;2.95;;;2.00;;
47772;SDS011;33534;51.028;13.716;2022-09-13T12:31:17;4.40;;;1.90;;
47772;SDS011;33534;51.028;13.716;2022-09-13T12:33:45;2.38;;;2.00;;
47772;SDS011;33534;51.028;13.716;2022-09-13T12:41:16;2.00;;;1.80;;
47772;SDS011;33534;51.028;13.716;2022-09-13T12:49:35;3.08;;;1.90;;
47772;SDS011;33534;51.028;13.716;2022-09-13T13:00:08;2.28;;;1.27;;
47772;SDS011;33534;51.028;13.716;2022-09-13T13:02:34;1.85;;;1.50;;
47772;SDS011;33534;51.028;13.716;2022-09-13T13:05:03;3.63;;;1.60;;
47772;SDS011;33534;51.028;13.716;2022-09-13T13:07:29;3.53;;;1.67;;
47772;SDS011;33534;51.028;13.716;2022-09-13T13:09:58;5.93;;;1.80;;
47772;SDS011;33534;51.028;13.716;2022-09-13T13:14:53;1.45;;;1.35;;
47772;SDS011;33534;51.028;13.716;2022-09-13T13:17:40;1.60;;;1.48;;
47772;SDS011;33534;51.028;13.716;2022-09-13T13:22:52;1.75;;;1.63;;
47772;SDS011;33534;51.028;13.716;2022-09-13T13:25:35;2.42;;;1.52;;
47772;SDS011;33534;51.028;13.716;2022-09-13T13:30:50;6.28;;;1.65;;
47772;SDS011;33534;51.028;13.716;2022-09-13T13:33:18;2.30;;;1.50;;
47772;SDS011;33534;51.028;13.716;2022-09-13T13:35:45;2.78;;;1.58;;
47772;SDS011;33534;51.028;13.716;2022-09-13T13:41:04;3.83;;;1.50;;
47772;SDS011;33534;51.028;13.716;2022-09-13T13:43:31;4.20;;;1.77;;
47772;SDS011;33534;51.028;13.716;2022-09-13T13:46:22;1.60;;;1.33;;
47772;SDS011;33534;51.028;13.716;2022-09-13T13:48:44;4.18;;;1.67;;
47772;SDS011;33534;51.028;13.716;2022-09-13T13:53:36;4.28;;;1.48;;
47772;SDS011;33534;51.028;13.716;2022-09-13T13:56:14;1.25;;;1.02;;
47772;SDS011;33534;51.028;13.716;2022-09-13T13:58:46;1.75;;;1.10;;
47772;SDS011;33534;51.028;13.716;2022-09-13T14:01:20;3.42;;;1.38;;
47772;SDS011;33534;51.028;13.716;2022-09-13T14:09:02;1.20;;;1.10;;
47772;SDS011;33534;51.028;13.716;2022-09-13T14:19:40;3.63;;;1.15;;
47772;SDS011;33534;51.028;13.716;2022-09-13T14:22:26;1.65;;;1.42;;
47772;SDS011;33534;51.028;13.716;2022-09-13T14:27:38;3.95;;;1.20;;
47772;SDS011;33534;51.028;13.716;2022-09-13T14:30:50;2.05;;;0.82;;
47772;SDS011;33534;51.028;13.716;2022-09-13T14:32:55;1.67;;;1.30;;
47772;SDS011;33534;51.028;13.716;2022-09-13T14:37:47;1.52;;;1.20;;
47772;SDS011;33534;51.028;13.716;2022-09-13T14:40:17;1.75;;;1.23;;
47772;SDS011;33534;51.028;13.716;2022-09-13T14:42:45;2.35;;;1.23;;
47772;SDS011;33534;51.028;13.716;2022-09-13T14:45:15;2.35;;;1.40;;
47772;SDS011;33534;51.028;13.716;2022-09-13T14:47:46;2.60;;;1.27;;
47772;SDS011;33534;51.028;13.716;2022-09-13T14:50:14;3.53;;;1.48;;
47772;SDS011;33534;51.028;13.716;2022-09-13T14:52:46;2.50;;;1.65;;
47772;SDS011;33534;51.028;13.716;2022-09-13T14:55:15;7.75;;;1.50;;
47772;SDS011;33534;51.028;13.716;2022-09-13T14:57:45;2.40;;;1.48;;
47772;SDS011;33534;51.028;13.716;2022-09-13T15:02:38;2.28;;;1.17;;
47772;SDS011;33534;51.028;13.716;2022-09-13T15:05:06;3.70;;;1.50;;
47772;SDS011;33534;51.028;13.716;2022-09-13T15:12:31;2.33;;;1.80;;
47772;SDS011;33534;51.028;13.716;2022-09-13T15:17:55;6.97;;;2.00;;
47772;SDS011;33534;51.028;13.716;2022-09-13T15:20:22;2.53;;;1.50;;
47772;SDS011;33534;51.028;13.716;2022-09-13T15:22:48;2.65;;;1.63;;
47772;SDS011;33534;51.028;13.716;2022-09-13T15:25:17;4.45;;;1.83;;
47772;SDS011;33534;51.028;13.716;2022-09-13T15:27:44;2.58;;;1.75;;
47772;SDS011;33534;51.028;13.716;2022-09-13T15:30:18;6.13;;;1.58;;
47772;SDS011;33534;51.028;13.716;2022-09-13T15:32:44;5.22;;;2.00;;
47772;SDS011;33534;51.028;13.716;2022-09-13T15:37:42;4.78;;;1.40;;
47772;SDS011;33534;51.028;13.716;2022-09-13T15:40:19;2.10;;;1.83;;
47772;SDS011;33534;51.028;13.716;2022-09-13T15:42:46;4.57;;;1.98;;
47772;SDS011;33534;51.028;13.716;2022-09-13T15:45:12;2.22;;;2.00;;
47772;SDS011;33534;51.028;13.716;2022-09-13T15:47:38;2.45;;;1.75;;
47772;SDS011;33534;51.028;13.716;2022-09-13T15:50:04;4.68;;;1.90;;
47772;SDS011;33534;51.028;13.716;2022-09-13T15:52:31;2.03;;;1.40;;
47772;SDS011;33534;51.028;13.716;2022-09-13T15:54:57;1.90;;;1.70;;
47772;SDS011;33534;51.028;13.716;2022-09-13T15:57:24;2.53;;;1.40;;
47772;SDS011;33534;51.028;13.716;2022-09-13T15:59:50;2.30;;;1.77;;
47772;SDS011;33534;51.028;13.716;2022-09-13T16:04:49;3.90;;;2.00;;
47772;SDS011;33534;51.028;13.716;2022-09-13T16:07:15;4.32;;;1.73;;
47772;SDS011;33534;51.028;13.716;2022-09-13T16:09:42;1.83;;;1.70;;
47772;SDS011;33534;51.028;13.716;2022-09-13T16:12:08;2.38;;;1.95;;
47772;SDS011;33534;51.028;13.716;2022-09-13T16:14:34;2.17;;;1.80;;
47772;SDS011;33534;51.028;13.716;2022-09-13T16:17:05;3.47;;;1.90;;
47772;SDS011;33534;51.028;13.716;2022-09-13T16:19:32;3.97;;;1.80;;
47772;SDS011;33534;51.028;13.716;2022-09-13T16:21:58;3.83;;;1.77;;
47772;SDS011;33534;51.028;13.716;2022-09-13T16:24:24;2.40;;;2.20;;
47772;SDS011;33534;51.028;13.716;2022-09-13T16:26:50;5.93;;;2.10;;
47772;SDS011;33534;51.028;13.716;2022-09-13T16:29:16;2.67;;;1.85;;
47772;SDS011;33534;51.028;13.716;2022-09-13T16:31:42;3.08;;;1.88;;
47772;SDS011;33534;51.028;13.716;2022-09-13T16:34:08;2.55;;;2.00;;
47772;SDS011;33534;51.028;13.716;2022-09-13T16:36:34;3.67;;;1.77;;
47772;SDS011;33534;51.028;13.716;2022-09-13T16:39:00;3.90;;;2.25;;
47772;SDS011;33534;51.028;13.716;2022-09-13T16:41:26;4.25;;;1.80;;
47772;SDS011;33534;51.028;13.716;2022-09-13T16:43:53;2.13;;;1.90;;
47772;SDS011;33534;51.028;13.716;2022-09-13T16:46:19;3.15;;;1.90;;
47772;SDS011;33534;51.028;13.716;2022-09-13T16:48:50;2.50;;;1.80;;
47772;SDS011;33534;51.028;13.716;2022-09-13T16:51:18;1.80;;;1.70;;
47772;SDS011;33534;51.028;13.716;2022-09-13T16:53:44;4.00;;;1.70;;
47772;SDS011;33534;51.028;13.716;2022-09-13T16:56:11;2.95;;;1.70;;
47772;SDS011;33534;51.028;13.716;2022-09-13T16:58:38;3.40;;;2.03;;
47772;SDS011;33534;51.028;13.716;2022-09-13T17:01:05;3.08;;;2.00;;
47772;SDS011;33534;51.028;13.716;2022-09-13T17:03:31;3.15;;;1.75;;
47772;SDS011;33534;51.028;13.716;2022-09-13T17:05:59;2.03;;;1.75;;
47772;SDS011;33534;51.028;13.716;2022-09-13T17:08:25;3.35;;;1.55;;
47772;SDS011;33534;51.028;13.716;2022-09-13T17:10:51;2.47;;;1.95;;
47772;SDS011;33534;51.028;13.716;2022-09-13T17:13:17;2.88;;;2.10;;
47772;SDS011;33534;51.028;13.716;2022-09-13T17:15:43;2.85;;;1.88;;
47772;SDS011;33534;51.028;13.716;2022-09-13T17:18:09;3.70;;;2.47;;
47772;SDS011;33534;51.028;13.716;2022-09-13T17:20:35;3.45;;;2.53;;
47772;SDS011;33534;51.028;13.716;2022-09-13T17:23:02;2.72;;;2.03;;
47772;SDS011;33534;51.028;13.716;2022-09-13T17:25:28;4.65;;;2.08;;
47772;SDS011;33534;51.028;13.716;2022-09-13T17:27:53;3.55;;;1.90;;
47772;SDS011;33534;51.028;13.716;2022-09-13T17:30:19;3.28;;;2.45;;
47772;SDS011;33534;51.028;13.716;2022-09-13T17:32:45;2.40;;;2.20;;
47772;SDS011;33534;51.028;13.716;2022-09-13T17:35:11;4.22;;;1.95;;
47772;SDS011;33534;51.028;13.716;2022-09-13T17:37:38;2.67;;;2.20;;
47772;SDS011;33534;51.028;13.716;2022-09-13T17:40:04;3.72;;;2.40;;
47772;SDS011;33534;51.028;13.716;2022-09-13T17:42:30;3.17;;;2.50;;
47772;SDS011;33534;51.028;13.716;2022-09-13T17:44:56;3.05;;;2.33;;
47772;SDS011;33534;51.028;13.716;2022-09-13T17:47:22;4.07;;;2.28;;
47772;SDS011;33534;51.028;13.716;2022-09-13T17:49:48;2.65;;;2.38;;
47772;SDS011;33534;51.028;13.716;2022-09-13T17:52:14;3.05;;;2.70;;
47772;SDS011;33534;51.028;13.716;2022-09-13T17:54:40;1.92;;;1.75;;
47772;SDS011;33534;51.028;13.716;2022-09-13T17:57:06;3.35;;;2.10;;
47772;SDS011;33534;51.028;13.716;2022-09-13T17:59:35;3.50;;;2.55;;
47772;SDS011;33534;51.028;13.716;2022-09-13T18:02:02;2.38;;;1.90;;
47772;SDS011;33534;51.028;13.716;2022-09-13T18:04:28;3.72;;;2.30;;
47772;SDS011;33534;51.028;13.716;2022-09-13T18:06:54;3.58;;;2.20;;
47772;SDS011;33534;51.028;13.716;2022-09-13T18:09:20;4.72;;;2.58;;
47772;SDS011;33534;51.028;13.716;2022-09-13T18:11:46;4.15;;;2.50;;
47772;SDS011;33534;51.028;13.716;2022-09-13T18:14:14;3.35;;;1.88;;
47772;SDS011;33534;51.028;13.716;2022-09-13T18:16:40;3.85;;;2.25;;
47772;SDS011;33534;51.028;13.716;2022-09-13T18:19:06;4.97;;;2.92;;
47772;SDS011;33534;51.028;13.716;2022-09-13T18:21:33;3.92;;;2.60;;
47772;SDS011;33534;51.028;13.716;2022-09-13T18:23:59;3.78;;;2.60;;
47772;SDS011;33534;51.028;13.716;2022-09-13T18:26:29;2.70;;;2.20;;
47772;SDS011;33534;51.028;13.716;2022-09-13T18:28:59;4.65;;;3.25;;